sensor_id;sensor_type;location;lat;lon;timestamp;pressure;altitude;pressure_sealevel;temperature;humidity
71567;BME280;59403;47.456;19.120;2023-04-04T00:01:15;100622.78;;;2.56;49.97
71567;BME280;59403;47.456;19.120;2023-04-04T00:03:43;100630.03;;;2.65;48.85
71567;BME280;59403;47.456;19.120;2023-04-04T00:06:10;100625.41;;;2.56;49.01
71567;BME280;59403;47.456;19.120;2023-04-04T00:08:38;100628.38;;;2.64;49.40
71567;BME280;59403;47.456;19.120;2023-04-04T00:11:05;100634.09;;;2.56;48.66
71567;BME280;59403;47.456;19.120;2023-04-04T00:13:32;100636.66;;;2.44;49.14
71567;BME280;59403;47.456;19.120;2023-04-04T00:15:58;100644.13;;;2.50;49.24
71567;BME280;59403;47.456;19.120;2023-04-04T00:18:26;100646.19;;;2.45;50.00
71567;BME280;59403;47.456;19.120;2023-04-04T00:20:52;100645.16;;;2.47;50.26
71567;BME280;59403;47.456;19.120;2023-04-04T00:23:19;100646.63;;;2.51;49.50
71567;BME280;59403;47.456;19.120;2023-04-04T00:25:50;100653.44;;;2.54;49.74
71567;BME280;59403;47.456;19.120;2023-04-04T00:28:17;100639.75;;;2.50;49.73
71567;BME280;59403;47.456;19.120;2023-04-04T00:30:45;100652.06;;;2.48;49.65
71567;BME280;59403;47.456;19.120;2023-04-04T00:33:12;100649.56;;;2.47;49.38
71567;BME280;59403;47.456;19.120;2023-04-04T00:35:39;100645.88;;;2.49;49.88
71567;BME280;59403;47.456;19.120;2023-04-04T00:38:06;100642.62;;;2.46;50.65
71567;BME280;59403;47.456;19.120;2023-04-04T00:40:39;100643.38;;;2.48;50.05
71567;BME280;59403;47.456;19.120;2023-04-04T00:43:08;100643.28;;;2.49;50.42
71567;BME280;59403;47.456;19.120;2023-04-04T00:45:35;100640.59;;;2.37;50.78
71567;BME280;59403;47.456;19.120;2023-04-04T00:48:03;100641.06;;;2.43;50.79
71567;BME280;59403;47.456;19.120;2023-04-04T00:50:30;100639.16;;;2.33;51.61
71567;BME280;59403;47.456;19.120;2023-04-04T00:52:57;100638.31;;;2.32;51.26
71567;BME280;59403;47.456;19.120;2023-04-04T00:55:24;100637.81;;;2.40;51.15
71567;BME280;59403;47.456;19.120;2023-04-04T00:57:51;100622.22;;;2.38;51.34
71567;BME280;59403;47.456;19.120;2023-04-04T01:00:20;100617.19;;;2.35;51.88
71567;BME280;59403;47.456;19.120;2023-04-04T01:05:24;100618.53;;;2.28;51.71
71567;BME280;59403;47.456;19.120;2023-04-04T01:07:54;100612.50;;;2.27;51.97
71567;BME280;59403;47.456;19.120;2023-04-04T01:10:21;100605.88;;;2.22;51.87
71567;BME280;59403;47.456;19.120;2023-04-04T01:12:49;100592.22;;;2.31;51.59
71567;BME280;59403;47.456;19.120;2023-04-04T01:15:17;100591.59;;;2.27;51.87
71567;BME280;59403;47.456;19.120;2023-04-04T01:17:45;100590.31;;;2.20;52.39
71567;BME280;59403;47.456;19.120;2023-04-04T01:20:17;100581.94;;;2.28;52.55
71567;BME280;59403;47.456;19.120;2023-04-04T01:22:49;100577.25;;;2.20;52.17
71567;BME280;59403;47.456;19.120;2023-04-04T01:25:17;100572.94;;;2.19;52.35
71567;BME280;59403;47.456;19.120;2023-04-04T01:27:45;100582.84;;;2.14;52.02
71567;BME280;59403;47.456;19.120;2023-04-04T01:30:13;100565.09;;;2.19;52.27
71567;BME280;59403;47.456;19.120;2023-04-04T01:32:43;100564.19;;;2.20;52.18
71567;BME280;59403;47.456;19.120;2023-04-04T01:35:20;100562.59;;;2.18;52.42
71567;BME280;59403;47.456;19.120;2023-04-04T01:37:54;100556.34;;;2.20;52.26
71567;BME280;59403;47.456;19.120;2023-04-04T01:40:30;100555.72;;;2.17;52.47
71567;BME280;59403;47.456;19.120;2023-04-04T01:43:01;100545.97;;;2.19;52.92
71567;BME280;59403;47.456;19.120;2023-04-04T01:45:29;100547.22;;;2.13;52.36
71567;BME280;59403;47.456;19.120;2023-04-04T01:47:57;100540.97;;;2.16;52.59
71567;BME280;59403;47.456;19.120;2023-04-04T01:50:24;100545.25;;;2.17;52.83
71567;BME280;59403;47.456;19.120;2023-04-04T01:52:51;100533.31;;;2.13;53.21
71567;BME280;59403;47.456;19.120;2023-04-04T01:55:18;100531.56;;;2.13;52.74
71567;BME280;59403;47.456;19.120;2023-04-04T01:57:46;100530.50;;;2.16;53.01
71567;BME280;59403;47.456;19.120;2023-04-04T02:00:15;100528.00;;;2.14;52.94
71567;BME280;59403;47.456;19.120;2023-04-04T02:02:42;100520.16;;;2.14;53.72
71567;BME280;59403;47.456;19.120;2023-04-04T02:05:09;100516.06;;;2.10;53.26
71567;BME280;59403;47.456;19.120;2023-04-04T02:07:36;100515.44;;;2.07;53.19
71567;BME280;59403;47.456;19.120;2023-04-04T02:10:03;100516.38;;;2.06;53.42
71567;BME280;59403;47.456;19.120;2023-04-04T02:12:30;100507.06;;;2.02;54.15
71567;BME280;59403;47.456;19.120;2023-04-04T02:14:57;100501.66;;;2.05;54.03
71567;BME280;59403;47.456;19.120;2023-04-04T02:17:26;100493.56;;;1.95;54.38
71567;BME280;59403;47.456;19.120;2023-04-04T02:19:52;100491.91;;;1.94;54.76
71567;BME280;59403;47.456;19.120;2023-04-04T02:22:19;100482.38;;;1.93;54.26
71567;BME280;59403;47.456;19.120;2023-04-04T02:24:46;100483.03;;;1.97;54.44
71567;BME280;59403;47.456;19.120;2023-04-04T02:27:13;100470.38;;;1.91;54.64
71567;BME280;59403;47.456;19.120;2023-04-04T02:29:40;100480.00;;;1.90;55.15
71567;BME280;59403;47.456;19.120;2023-04-04T02:32:07;100482.50;;;1.92;55.16
71567;BME280;59403;47.456;19.120;2023-04-04T02:34:35;100476.63;;;1.88;55.27
71567;BME280;59403;47.456;19.120;2023-04-04T02:37:03;100470.38;;;1.91;54.81
71567;BME280;59403;47.456;19.120;2023-04-04T02:39:29;100481.00;;;1.88;55.59
71567;BME280;59403;47.456;19.120;2023-04-04T02:41:56;100480.19;;;1.87;55.13
71567;BME280;59403;47.456;19.120;2023-04-04T02:44:23;100488.94;;;1.86;55.50
71567;BME280;59403;47.456;19.120;2023-04-04T02:46:50;100478.56;;;1.72;56.12
71567;BME280;59403;47.456;19.120;2023-04-04T02:49:17;100485.38;;;1.75;56.19
71567;BME280;59403;47.456;19.120;2023-04-04T02:51:45;100497.38;;;1.77;56.71
71567;BME280;59403;47.456;19.120;2023-04-04T02:54:12;100489.75;;;1.74;56.04
71567;BME280;59403;47.456;19.120;2023-04-04T02:56:39;100498.81;;;1.69;57.43
71567;BME280;59403;47.456;19.120;2023-04-04T02:59:06;100501.50;;;1.67;56.48
71567;BME280;59403;47.456;19.120;2023-04-04T03:01:33;100501.41;;;1.69;56.71
71567;BME280;59403;47.456;19.120;2023-04-04T03:04:00;100499.53;;;1.71;57.36
71567;BME280;59403;47.456;19.120;2023-04-04T03:06:30;100490.06;;;1.70;56.90
71567;BME280;59403;47.456;19.120;2023-04-04T03:08:59;100501.41;;;1.69;57.26
71567;BME280;59403;47.456;19.120;2023-04-04T03:11:28;100496.06;;;1.58;57.72
71567;BME280;59403;47.456;19.120;2023-04-04T03:13:55;100504.97;;;1.68;57.41
71567;BME280;59403;47.456;19.120;2023-04-04T03:16:23;100513.75;;;1.67;57.31
71567;BME280;59403;47.456;19.120;2023-04-04T03:18:49;100512.50;;;1.72;56.75
71567;BME280;59403;47.456;19.120;2023-04-04T03:21:16;100512.59;;;1.71;57.37
71567;BME280;59403;47.456;19.120;2023-04-04T03:23:43;100506.94;;;1.64;57.31
71567;BME280;59403;47.456;19.120;2023-04-04T03:26:11;100513.81;;;1.65;57.10
71567;BME280;59403;47.456;19.120;2023-04-04T03:28:39;100509.34;;;1.67;57.55
71567;BME280;59403;47.456;19.120;2023-04-04T03:31:06;100519.13;;;1.64;57.52
71567;BME280;59403;47.456;19.120;2023-04-04T03:33:35;100514.87;;;1.63;57.89
71567;BME280;59403;47.456;19.120;2023-04-04T03:36:02;100522.16;;;1.58;57.66
71567;BME280;59403;47.456;19.120;2023-04-04T03:38:30;100516.84;;;1.59;57.64
71567;BME280;59403;47.456;19.120;2023-04-04T03:41:03;100524.38;;;1.64;57.60
71567;BME280;59403;47.456;19.120;2023-04-04T03:43:32;100523.62;;;1.62;57.34
71567;BME280;59403;47.456;19.120;2023-04-04T03:46:00;100526.22;;;1.62;57.47
71567;BME280;59403;47.456;19.120;2023-04-04T03:48:27;100529.69;;;1.62;57.67
71567;BME280;59403;47.456;19.120;2023-04-04T03:50:55;100530.62;;;1.61;57.94
71567;BME280;59403;47.456;19.120;2023-04-04T03:53:22;100532.69;;;1.56;58.35
71567;BME280;59403;47.456;19.120;2023-04-04T03:55:49;100526.91;;;1.51;58.42
71567;BME280;59403;47.456;19.120;2023-04-04T03:58:16;100521.63;;;1.53;58.82
71567;BME280;59403;47.456;19.120;2023-04-04T04:00:44;100527.28;;;1.59;58.32
71567;BME280;59403;47.456;19.120;2023-04-04T04:03:11;100519.44;;;1.59;57.70
71567;BME280;59403;47.456;19.120;2023-04-04T04:05:38;100514.50;;;1.55;57.97
71567;BME280;59403;47.456;19.120;2023-04-04T04:08:08;100513.47;;;1.57;57.80
71567;BME280;59403;47.456;19.120;2023-04-04T04:10:36;100510.22;;;1.54;58.14
71567;BME280;59403;47.456;19.120;2023-04-04T04:13:02;100505.22;;;1.51;58.02
71567;BME280;59403;47.456;19.120;2023-04-04T04:15:29;100511.81;;;1.56;58.19
71567;BME280;59403;47.456;19.120;2023-04-04T04:17:58;100504.91;;;1.55;58.03
71567;BME280;59403;47.456;19.120;2023-04-04T04:20:24;100509.47;;;1.52;58.48
71567;BME280;59403;47.456;19.120;2023-04-04T04:22:51;100504.56;;;1.47;57.84
71567;BME280;59403;47.456;19.120;2023-04-04T04:25:18;100501.22;;;1.45;57.95
71567;BME280;59403;47.456;19.120;2023-04-04T04:27:45;100507.91;;;1.49;57.97
71567;BME280;59403;47.456;19.120;2023-04-04T04:30:12;100508.03;;;1.48;58.18
71567;BME280;59403;47.456;19.120;2023-04-04T04:32:39;100506.31;;;1.47;58.16
71567;BME280;59403;47.456;19.120;2023-04-04T04:35:08;100497.38;;;1.51;57.74
71567;BME280;59403;47.456;19.120;2023-04-04T04:37:35;100501.84;;;1.49;57.64
71567;BME280;59403;47.456;19.120;2023-04-04T04:40:03;100499.25;;;1.49;58.00
71567;BME280;59403;47.456;19.120;2023-04-04T04:42:30;100500.75;;;1.53;57.94
71567;BME280;59403;47.456;19.120;2023-04-04T04:44:57;100499.25;;;1.49;57.95
71567;BME280;59403;47.456;19.120;2023-04-04T04:47:25;100494.25;;;1.58;57.84
71567;BME280;59403;47.456;19.120;2023-04-04T04:49:52;100487.59;;;1.54;57.77
71567;BME280;59403;47.456;19.120;2023-04-04T04:52:20;100486.44;;;1.58;57.68
71567;BME280;59403;47.456;19.120;2023-04-04T04:54:47;100493.03;;;1.64;57.65
71567;BME280;59403;47.456;19.120;2023-04-04T04:57:15;100494.19;;;1.60;58.21
71567;BME280;59403;47.456;19.120;2023-04-04T04:59:43;100489.62;;;1.63;57.74
71567;BME280;59403;47.456;19.120;2023-04-04T05:02:09;100499.00;;;1.66;58.09
71567;BME280;59403;47.456;19.120;2023-04-04T05:04:36;100500.59;;;1.68;57.64
71567;BME280;59403;47.456;19.120;2023-04-04T05:07:05;100488.47;;;1.67;57.82
71567;BME280;59403;47.456;19.120;2023-04-04T05:09:34;100488.34;;;1.69;57.69
71567;BME280;59403;47.456;19.120;2023-04-04T05:12:01;100487.97;;;1.75;56.93
71567;BME280;59403;47.456;19.120;2023-04-04T05:14:28;100498.22;;;1.78;56.77
71567;BME280;59403;47.456;19.120;2023-04-04T05:16:55;100502.09;;;1.85;56.75
71567;BME280;59403;47.456;19.120;2023-04-04T05:19:21;100503.34;;;1.79;56.55
71567;BME280;59403;47.456;19.120;2023-04-04T05:21:49;100510.53;;;1.76;55.91
71567;BME280;59403;47.456;19.120;2023-04-04T05:24:16;100513.09;;;1.90;56.52
71567;BME280;59403;47.456;19.120;2023-04-04T05:26:44;100526.34;;;1.87;56.89
71567;BME280;59403;47.456;19.120;2023-04-04T05:29:11;100523.19;;;2.08;56.48
71567;BME280;59403;47.456;19.120;2023-04-04T05:31:38;100513.69;;;2.20;55.63
71567;BME280;59403;47.456;19.120;2023-04-04T05:34:05;100523.84;;;2.12;55.30
71567;BME280;59403;47.456;19.120;2023-04-04T05:36:33;100520.59;;;2.08;54.97
71567;BME280;59403;47.456;19.120;2023-04-04T05:39:01;100530.56;;;2.41;54.82
71567;BME280;59403;47.456;19.120;2023-04-04T05:41:29;100530.59;;;2.54;54.66
71567;BME280;59403;47.456;19.120;2023-04-04T05:43:57;100522.38;;;2.33;54.15
71567;BME280;59403;47.456;19.120;2023-04-04T05:46:25;100523.28;;;2.59;54.01
71567;BME280;59403;47.456;19.120;2023-04-04T05:48:52;100517.31;;;2.57;53.83
71567;BME280;59403;47.456;19.120;2023-04-04T05:51:18;100523.81;;;2.76;52.43
71567;BME280;59403;47.456;19.120;2023-04-04T05:53:46;100531.66;;;2.76;52.97
71567;BME280;59403;47.456;19.120;2023-04-04T05:56:13;100535.41;;;2.72;53.73
71567;BME280;59403;47.456;19.120;2023-04-04T05:58:40;100517.84;;;2.74;53.10
71567;BME280;59403;47.456;19.120;2023-04-04T06:01:08;100533.09;;;2.80;53.51
71567;BME280;59403;47.456;19.120;2023-04-04T06:03:36;100527.12;;;2.91;53.04
71567;BME280;59403;47.456;19.120;2023-04-04T06:06:03;100516.16;;;2.98;53.17
71567;BME280;59403;47.456;19.120;2023-04-04T06:08:31;100515.75;;;2.79;52.68
71567;BME280;59403;47.456;19.120;2023-04-04T06:10:58;100511.66;;;3.00;52.59
71567;BME280;59403;47.456;19.120;2023-04-04T06:13:25;100529.31;;;3.09;51.66
71567;BME280;59403;47.456;19.120;2023-04-04T06:15:52;100530.78;;;3.26;51.79
71567;BME280;59403;47.456;19.120;2023-04-04T06:18:20;100537.50;;;3.05;51.82
71567;BME280;59403;47.456;19.120;2023-04-04T06:20:47;100532.88;;;3.21;52.48
71567;BME280;59403;47.456;19.120;2023-04-04T06:23:14;100545.31;;;3.30;52.02
71567;BME280;59403;47.456;19.120;2023-04-04T06:25:41;100539.34;;;3.40;51.61
71567;BME280;59403;47.456;19.120;2023-04-04T06:28:08;100517.47;;;3.16;50.62
71567;BME280;59403;47.456;19.120;2023-04-04T06:30:36;100498.34;;;3.16;50.62
71567;BME280;59403;47.456;19.120;2023-04-04T06:33:03;100490.69;;;3.13;50.31
71567;BME280;59403;47.456;19.120;2023-04-04T06:35:32;100481.81;;;3.03;50.21
71567;BME280;59403;47.456;19.120;2023-04-04T06:37:59;100488.06;;;3.13;50.88
71567;BME280;59403;47.456;19.120;2023-04-04T06:40:27;100491.22;;;3.18;50.21
71567;BME280;59403;47.456;19.120;2023-04-04T06:42:54;100486.28;;;3.26;50.43
71567;BME280;59403;47.456;19.120;2023-04-04T06:45:22;100481.53;;;3.07;49.75
71567;BME280;59403;47.456;19.120;2023-04-04T06:47:52;100484.94;;;3.08;50.51
71567;BME280;59403;47.456;19.120;2023-04-04T06:50:19;100483.91;;;3.10;50.22
71567;BME280;59403;47.456;19.120;2023-04-04T06:52:48;100484.50;;;3.26;50.18
71567;BME280;59403;47.456;19.120;2023-04-04T06:55:15;100488.69;;;3.29;50.81
71567;BME280;59403;47.456;19.120;2023-04-04T06:57:43;100495.41;;;3.08;50.26
71567;BME280;59403;47.456;19.120;2023-04-04T07:00:11;100486.50;;;3.23;50.61
71567;BME280;59403;47.456;19.120;2023-04-04T07:02:39;100494.87;;;3.28;51.06
71567;BME280;59403;47.456;19.120;2023-04-04T07:05:06;100491.63;;;3.24;50.42
71567;BME280;59403;47.456;19.120;2023-04-04T07:07:33;100499.09;;;3.18;49.93
71567;BME280;59403;47.456;19.120;2023-04-04T07:10:01;100487.44;;;3.22;49.74
71567;BME280;59403;47.456;19.120;2023-04-04T07:12:29;100497.59;;;3.26;50.23
71567;BME280;59403;47.456;19.120;2023-04-04T07:14:56;100497.16;;;3.20;50.32
71567;BME280;59403;47.456;19.120;2023-04-04T07:17:24;100512.56;;;3.24;50.14
71567;BME280;59403;47.456;19.120;2023-04-04T07:19:50;100505.50;;;3.37;50.85
71567;BME280;59403;47.456;19.120;2023-04-04T07:22:17;100505.19;;;3.42;50.22
71567;BME280;59403;47.456;19.120;2023-04-04T07:24:44;100507.94;;;3.64;49.70
71567;BME280;59403;47.456;19.120;2023-04-04T07:27:13;100509.09;;;3.60;49.32
71567;BME280;59403;47.456;19.120;2023-04-04T07:29:40;100507.06;;;3.76;49.29
71567;BME280;59403;47.456;19.120;2023-04-04T07:32:07;100514.41;;;3.71;49.07
71567;BME280;59403;47.456;19.120;2023-04-04T07:34:35;100511.56;;;3.74;48.43
71567;BME280;59403;47.456;19.120;2023-04-04T07:37:01;100506.34;;;3.98;49.06
71567;BME280;59403;47.456;19.120;2023-04-04T07:39:28;100511.59;;;4.09;47.51
71567;BME280;59403;47.456;19.120;2023-04-04T07:41:55;100521.66;;;4.15;48.41
71567;BME280;59403;47.456;19.120;2023-04-04T07:44:23;100511.53;;;4.21;47.78
71567;BME280;59403;47.456;19.120;2023-04-04T07:46:50;100512.88;;;4.27;47.25
71567;BME280;59403;47.456;19.120;2023-04-04T07:49:17;100514.16;;;4.21;48.31
71567;BME280;59403;47.456;19.120;2023-04-04T07:51:44;100515.56;;;4.49;47.49
71567;BME280;59403;47.456;19.120;2023-04-04T07:54:11;100522.50;;;4.50;47.26
71567;BME280;59403;47.456;19.120;2023-04-04T07:56:38;100521.72;;;4.37;46.97
71567;BME280;59403;47.456;19.120;2023-04-04T07:59:06;100514.84;;;4.47;47.69
71567;BME280;59403;47.456;19.120;2023-04-04T08:01:34;100527.81;;;4.37;47.21
71567;BME280;59403;47.456;19.120;2023-04-04T08:04:01;100525.37;;;4.23;47.35
71567;BME280;59403;47.456;19.120;2023-04-04T08:06:29;100520.66;;;4.39;47.31
71567;BME280;59403;47.456;19.120;2023-04-04T08:08:58;100509.94;;;4.53;47.50
71567;BME280;59403;47.456;19.120;2023-04-04T08:11:25;100517.81;;;4.42;47.22
71567;BME280;59403;47.456;19.120;2023-04-04T08:13:52;100509.34;;;4.39;46.49
71567;BME280;59403;47.456;19.120;2023-04-04T08:16:19;100518.91;;;4.51;46.78
71567;BME280;59403;47.456;19.120;2023-04-04T08:18:47;100524.34;;;4.83;45.99
71567;BME280;59403;47.456;19.120;2023-04-04T08:21:14;100520.84;;;4.71;46.03
71567;BME280;59403;47.456;19.120;2023-04-04T08:23:41;100534.06;;;4.70;45.48
71567;BME280;59403;47.456;19.120;2023-04-04T08:26:08;100524.94;;;4.86;46.07
71567;BME280;59403;47.456;19.120;2023-04-04T08:28:36;100523.84;;;4.89;45.53
71567;BME280;59403;47.456;19.120;2023-04-04T08:31:03;100511.56;;;5.11;45.93
71567;BME280;59403;47.456;19.120;2023-04-04T08:33:30;100522.41;;;5.18;45.39
71567;BME280;59403;47.456;19.120;2023-04-04T08:35:58;100524.59;;;5.02;44.73
71567;BME280;59403;47.456;19.120;2023-04-04T08:38:25;100526.88;;;5.17;45.52
71567;BME280;59403;47.456;19.120;2023-04-04T08:40:52;100522.19;;;5.32;45.01
71567;BME280;59403;47.456;19.120;2023-04-04T08:43:20;100517.78;;;4.99;45.04
71567;BME280;59403;47.456;19.120;2023-04-04T08:45:49;100516.72;;;5.24;45.34
71567;BME280;59403;47.456;19.120;2023-04-04T08:48:19;100515.75;;;5.25;45.47
71567;BME280;59403;47.456;19.120;2023-04-04T08:50:47;100516.84;;;5.22;45.62
71567;BME280;59403;47.456;19.120;2023-04-04T08:53:17;100502.28;;;4.96;45.43
71567;BME280;59403;47.456;19.120;2023-04-04T08:55:44;100499.66;;;5.72;44.69
71567;BME280;59403;47.456;19.120;2023-04-04T08:58:12;100482.00;;;5.74;44.76
71567;BME280;59403;47.456;19.120;2023-04-04T09:00:39;100484.56;;;5.53;44.23
71567;BME280;59403;47.456;19.120;2023-04-04T09:03:10;100497.56;;;5.55;44.35
71567;BME280;59403;47.456;19.120;2023-04-04T09:05:39;100501.53;;;5.16;44.58
71567;BME280;59403;47.456;19.120;2023-04-04T09:08:07;100488.34;;;5.71;44.85
71567;BME280;59403;47.456;19.120;2023-04-04T09:10:36;100491.13;;;5.59;44.43
71567;BME280;59403;47.456;19.120;2023-04-04T09:13:06;100485.16;;;5.57;43.76
71567;BME280;59403;47.456;19.120;2023-04-04T09:15:35;100488.31;;;5.83;44.16
71567;BME280;59403;47.456;19.120;2023-04-04T09:18:03;100479.44;;;5.52;43.88
71567;BME280;59403;47.456;19.120;2023-04-04T09:20:38;100441.13;;;5.92;43.78
71567;BME280;59403;47.456;19.120;2023-04-04T09:23:07;100481.25;;;5.94;43.59
71567;BME280;59403;47.456;19.120;2023-04-04T09:25:34;100492.75;;;6.14;43.78
71567;BME280;59403;47.456;19.120;2023-04-04T09:28:04;100483.78;;;6.16;42.86
71567;BME280;59403;47.456;19.120;2023-04-04T09:30:39;100487.75;;;6.11;43.08
71567;BME280;59403;47.456;19.120;2023-04-04T09:33:08;100478.28;;;5.88;43.11
71567;BME280;59403;47.456;19.120;2023-04-04T09:35:37;100467.84;;;6.29;43.48
71567;BME280;59403;47.456;19.120;2023-04-04T09:38:06;100475.31;;;6.13;42.46
71567;BME280;59403;47.456;19.120;2023-04-04T09:40:34;100471.09;;;6.42;43.76
71567;BME280;59403;47.456;19.120;2023-04-04T09:43:03;100488.06;;;6.38;42.67
71567;BME280;59403;47.456;19.120;2023-04-04T09:45:33;100479.28;;;6.07;41.87
71567;BME280;59403;47.456;19.120;2023-04-04T09:48:01;100470.06;;;6.33;42.39
71567;BME280;59403;47.456;19.120;2023-04-04T09:50:28;100465.06;;;6.10;42.29
71567;BME280;59403;47.456;19.120;2023-04-04T09:52:59;100456.22;;;6.31;42.66
71567;BME280;59403;47.456;19.120;2023-04-04T09:55:32;100461.19;;;6.34;41.69
71567;BME280;59403;47.456;19.120;2023-04-04T09:58:11;100480.44;;;6.35;42.37
71567;BME280;59403;47.456;19.120;2023-04-04T10:00:39;100474.56;;;6.42;41.71
71567;BME280;59403;47.456;19.120;2023-04-04T10:03:11;100476.25;;;6.73;41.78
71567;BME280;59403;47.456;19.120;2023-04-04T10:05:39;100478.72;;;6.96;41.27
71567;BME280;59403;47.456;19.120;2023-04-04T10:08:16;100475.56;;;7.02;41.00
71567;BME280;59403;47.456;19.120;2023-04-04T10:10:47;100472.44;;;6.87;41.56
71567;BME280;59403;47.456;19.120;2023-04-04T10:13:23;100469.19;;;7.04;40.91
71567;BME280;59403;47.456;19.120;2023-04-04T10:15:51;100473.84;;;6.61;40.76
71567;BME280;59403;47.456;19.120;2023-04-04T10:18:19;100469.22;;;6.74;40.96
71567;BME280;59403;47.456;19.120;2023-04-04T10:20:48;100454.09;;;7.06;39.98
71567;BME280;59403;47.456;19.120;2023-04-04T10:23:18;100450.47;;;6.98;39.19
71567;BME280;59403;47.456;19.120;2023-04-04T10:25:45;100456.16;;;7.42;39.69
71567;BME280;59403;47.456;19.120;2023-04-04T10:28:13;100450.06;;;7.51;39.85
71567;BME280;59403;47.456;19.120;2023-04-04T10:30:48;100445.28;;;7.17;39.34
71567;BME280;59403;47.456;19.120;2023-04-04T10:33:21;100440.84;;;7.17;39.55
71567;BME280;59403;47.456;19.120;2023-04-04T10:35:50;100429.28;;;6.99;38.81
71567;BME280;59403;47.456;19.120;2023-04-04T10:38:20;100438.34;;;7.16;39.74
71567;BME280;59403;47.456;19.120;2023-04-04T10:40:51;100439.03;;;7.18;39.30
71567;BME280;59403;47.456;19.120;2023-04-04T10:43:23;100436.47;;;7.46;38.69
71567;BME280;59403;47.456;19.120;2023-04-04T10:45:53;100440.37;;;7.71;38.97
71567;BME280;59403;47.456;19.120;2023-04-04T10:48:21;100446.63;;;7.89;38.48
71567;BME280;59403;47.456;19.120;2023-04-04T10:50:49;100449.25;;;8.08;37.99
71567;BME280;59403;47.456;19.120;2023-04-04T10:53:19;100442.34;;;7.88;38.83
71567;BME280;59403;47.456;19.120;2023-04-04T10:55:47;100444.53;;;8.21;38.93
71567;BME280;59403;47.456;19.120;2023-04-04T10:58:14;100448.59;;;7.87;38.42
71567;BME280;59403;47.456;19.120;2023-04-04T11:00:48;100439.81;;;7.48;37.65
71567;BME280;59403;47.456;19.120;2023-04-04T11:03:18;100444.56;;;7.15;38.00
71567;BME280;59403;47.456;19.120;2023-04-04T11:05:44;100445.78;;;7.50;38.03
71567;BME280;59403;47.456;19.120;2023-04-04T11:08:16;100439.97;;;7.75;37.50
71567;BME280;59403;47.456;19.120;2023-04-04T11:10:46;100446.75;;;8.06;37.62
71567;BME280;59403;47.456;19.120;2023-04-04T11:13:16;100448.16;;;7.91;37.92
71567;BME280;59403;47.456;19.120;2023-04-04T11:15:53;100434.69;;;7.66;37.63
71567;BME280;59403;47.456;19.120;2023-04-04T11:18:44;100437.03;;;8.17;37.52
71567;BME280;59403;47.456;19.120;2023-04-04T11:21:13;100442.31;;;8.17;37.52
71567;BME280;59403;47.456;19.120;2023-04-04T11:24:14;100430.53;;;8.01;37.65
71567;BME280;59403;47.456;19.120;2023-04-04T11:26:44;100420.69;;;8.13;38.34
71567;BME280;59403;47.456;19.120;2023-04-04T11:29:20;100423.00;;;8.45;37.40
71567;BME280;59403;47.456;19.120;2023-04-04T11:31:48;100423.03;;;8.16;36.64
71567;BME280;59403;47.456;19.120;2023-04-04T11:34:30;100424.47;;;8.66;37.79
71567;BME280;59403;47.456;19.120;2023-04-04T11:36:57;100430.81;;;8.27;38.12
71567;BME280;59403;47.456;19.120;2023-04-04T11:39:28;100429.81;;;8.38;37.03
71567;BME280;59403;47.456;19.120;2023-04-04T11:42:00;100424.53;;;8.19;36.78
71567;BME280;59403;47.456;19.120;2023-04-04T11:44:30;100415.91;;;8.55;38.35
71567;BME280;59403;47.456;19.120;2023-04-04T11:47:01;100413.03;;;8.29;36.89
71567;BME280;59403;47.456;19.120;2023-04-04T11:49:37;100412.91;;;9.04;37.09
71567;BME280;59403;47.456;19.120;2023-04-04T11:52:06;100408.91;;;9.00;36.50
71567;BME280;59403;47.456;19.120;2023-04-04T11:54:33;100405.38;;;9.09;36.57
71567;BME280;59403;47.456;19.120;2023-04-04T11:57:01;100389.28;;;9.02;36.56
71567;BME280;59403;47.456;19.120;2023-04-04T11:59:28;100398.97;;;8.84;36.12
71567;BME280;59403;47.456;19.120;2023-04-04T12:01:56;100392.69;;;9.40;35.77
71567;BME280;59403;47.456;19.120;2023-04-04T12:04:24;100391.31;;;8.91;35.08
71567;BME280;59403;47.456;19.120;2023-04-04T12:06:54;100386.50;;;8.31;35.18
71567;BME280;59403;47.456;19.120;2023-04-04T12:09:23;100384.44;;;8.71;37.98
71567;BME280;59403;47.456;19.120;2023-04-04T12:11:51;100377.56;;;8.51;36.82
71567;BME280;59403;47.456;19.120;2023-04-04T12:14:20;100383.25;;;8.56;36.58
71567;BME280;59403;47.456;19.120;2023-04-04T12:16:48;100380.25;;;8.22;36.70
71567;BME280;59403;47.456;19.120;2023-04-04T12:19:16;100387.28;;;8.50;37.21
71567;BME280;59403;47.456;19.120;2023-04-04T12:21:44;100377.31;;;8.44;36.15
71567;BME280;59403;47.456;19.120;2023-04-04T12:24:13;100373.31;;;8.40;36.08
71567;BME280;59403;47.456;19.120;2023-04-04T12:26:41;100371.59;;;8.85;36.42
71567;BME280;59403;47.456;19.120;2023-04-04T12:29:09;100369.41;;;8.98;35.96
71567;BME280;59403;47.456;19.120;2023-04-04T12:31:38;100357.00;;;9.08;37.46
71567;BME280;59403;47.456;19.120;2023-04-04T12:34:06;100354.75;;;9.13;35.70
71567;BME280;59403;47.456;19.120;2023-04-04T12:36:37;100358.94;;;8.89;35.85
71567;BME280;59403;47.456;19.120;2023-04-04T12:39:05;100362.25;;;8.91;35.87
71567;BME280;59403;47.456;19.120;2023-04-04T12:41:34;100354.22;;;9.10;36.43
71567;BME280;59403;47.456;19.120;2023-04-04T12:44:03;100353.59;;;8.71;36.03
71567;BME280;59403;47.456;19.120;2023-04-04T12:46:36;100360.97;;;8.95;36.13
71567;BME280;59403;47.456;19.120;2023-04-04T12:49:05;100353.06;;;8.68;36.94
71567;BME280;59403;47.456;19.120;2023-04-04T12:51:34;100351.88;;;8.80;35.77
71567;BME280;59403;47.456;19.120;2023-04-04T12:54:03;100346.69;;;8.88;36.04
71567;BME280;59403;47.456;19.120;2023-04-04T12:56:31;100348.34;;;8.62;36.55
71567;BME280;59403;47.456;19.120;2023-04-04T12:59:00;100345.72;;;8.89;37.85